Time;durP1;ratioP1;P1;durP2;ratioP2;P2;SDS_P1;SDS_P2;PMS_P1;PMS_P2;Temp;Humidity;BMP_temperature;BMP_pressure;BME280_temperature;BME280_humidity;BME280_pressure;Samples;Min_cycle;Max_cycle;Signal;HPM_P1;HPM_P2
2022/03/06 00:01:02;;;;;;;;;;;1.80;74.10;;;;;;5070411;28;19909;-73
2022/03/06 00:03:28;;;;;;;;;;;1.60;73.80;;;;;;5054827;28;19913;-72
2022/03/06 00:05:53;;;;;;;;;;;1.30;75.10;;;;;;5054827;28;20012;-72
2022/03/06 00:08:19;;;;;;;;;;;1.20;75.90;;;;;;5070478;28;19909;-72
2022/03/06 00:10:45;;;;;;;;;;;1.30;76.40;;;;;;5053665;28;19951;-72
2022/03/06 00:13:11;;;;;;;;;;;1.30;76.50;;;;;;5070294;28;19999;-72
2022/03/06 00:15:37;;;;;;;;;;;1.50;75.70;;;;;;5054710;28;19916;-72
2022/03/06 00:18:03;;;;;;;;;;;1.50;75.60;;;;;;5053516;28;19909;-72
2022/03/06 00:20:28;;;;;;;;;;;1.50;75.20;;;;;;5054734;28;19998;-72
2022/03/06 00:22:55;;;;;;;;;;;1.60;75.20;;;;;;5054594;28;19912;-72
2022/03/06 00:25:20;;;;;;;;;;;1.50;75.00;;;;;;5053258;28;19913;-72
2022/03/06 00:27:46;;;;;;;;;;;1.50;75.50;;;;;;5053336;28;20360;-72
2022/03/06 00:30:12;;;;;;;;;;;1.50;75.40;;;;;;5069893;28;19909;-72
2022/03/06 00:32:37;;;;;;;;;;;1.40;75.30;;;;;;5054352;28;19913;-72
2022/03/06 00:35:03;;;;;;;;;;;1.10;75.10;;;;;;5079905;23;20038;-75
2022/03/06 00:37:29;;;;;;;;;;;0.80;76.90;;;;;;5074864;28;19909;-76
2022/03/06 00:39:54;;;;;;;;;;;0.60;77.90;;;;;;5075025;28;19908;-76
2022/03/06 00:42:20;;;;;;;;;;;0.80;78.40;;;;;;5075121;28;20387;-76
2022/03/06 00:44:45;;;;;;;;;;;0.70;78.00;;;;;;5073615;28;19913;-77
2022/03/06 00:47:11;;;;;;;;;;;0.70;78.30;;;;;;5075090;28;19916;-77
2022/03/06 00:49:37;;;;;;;;;;;0.70;79.10;;;;;;5075105;28;20395;-76
2022/03/06 00:52:03;;;;;;;;;;;0.50;78.50;;;;;;5075002;28;19908;-76
2022/03/06 00:54:29;;;;;;;;;;;0.20;79.40;;;;;;5073691;28;19908;-76
2022/03/06 00:56:55;;;;;;;;;;;0.20;80.90;;;;;;5074881;28;19912;-76
2022/03/06 00:59:20;;;;;;;;;;;0.30;80.70;;;;;;5073410;28;19970;-76
2022/03/06 01:01:46;;;;;;;;;;;0.10;80.80;;;;;;5074608;28;19963;-76
2022/03/06 01:04:11;;;;;;;;;;;-0.20;81.90;;;;;;5056305;28;19924;-76
2022/03/06 01:06:37;;;;;;;;;;;-0.10;83.00;;;;;;5074258;28;19908;-76
2022/03/06 01:09:04;;;;;;;;;;;-0.20;82.60;;;;;;5074430;28;19916;-76
2022/03/06 01:11:29;;;;;;;;;;;0.00;83.10;;;;;;5074478;28;19908;-76
2022/03/06 01:13:55;;;;;;;;;;;0.00;82.80;;;;;;5072956;28;19916;-76
2022/03/06 01:16:21;;;;;;;;;;;0.20;82.70;;;;;;5074515;28;19912;-77
2022/03/06 01:18:47;;;;;;;;;;;0.20;82.20;;;;;;5074498;28;19908;-77
2022/03/06 01:21:12;;;;;;;;;;;0.30;82.70;;;;;;5074565;28;20382;-77
2022/03/06 01:23:38;;;;;;;;;;;0.50;82.10;;;;;;5056374;28;19908;-77
2022/03/06 01:26:04;;;;;;;;;;;0.60;79.80;;;;;;5074343;28;19909;-76
2022/03/06 01:28:31;;;;;;;;;;;0.30;79.50;;;;;;5074579;28;20370;-77
2022/03/06 01:30:56;;;;;;;;;;;0.00;79.60;;;;;;5073076;28;20334;-77
2022/03/06 01:33:22;;;;;;;;;;;-0.20;80.90;;;;;;5072905;28;19962;-77
2022/03/06 01:35:48;;;;;;;;;;;-0.20;81.30;;;;;;5072679;28;19962;-76
2022/03/06 01:38:13;;;;;;;;;;;-0.20;81.20;;;;;;5072823;28;19909;-76
2022/03/06 01:40:39;;;;;;;;;;;-0.40;82.00;;;;;;5073032;28;19909;-76
2022/03/06 01:43:05;;;;;;;;;;;-0.40;82.60;;;;;;5073909;28;19909;-76
2022/03/06 01:45:30;;;;;;;;;;;-0.40;82.60;;;;;;5072594;28;19916;-76
2022/03/06 01:47:56;;;;;;;;;;;-0.40;82.70;;;;;;5072639;28;19983;-76
2022/03/06 01:50:23;;;;;;;;;;;-0.40;82.70;;;;;;5073332;28;20079;-76
2022/03/06 01:52:50;;;;;;;;;;;-0.50;83.10;;;;;;5072556;28;20395;-76
2022/03/06 01:55:16;;;;;;;;;;;-0.40;83.70;;;;;;5055756;28;19914;-76
2022/03/06 01:57:42;;;;;;;;;;;-0.40;83.20;;;;;;5073536;28;19920;-76
2022/03/06 02:00:10;;;;;;;;;;;-0.20;82.70;;;;;;5073373;28;20300;-77
2022/03/06 02:02:35;;;;;;;;;;;-0.10;82.60;;;;;;5073626;28;19908;-76
2022/03/06 02:05:01;;;;;;;;;;;0.00;81.70;;;;;;5073436;28;20394;-76
2022/03/06 02:07:27;;;;;;;;;;;0.20;81.80;;;;;;5072434;28;19915;-77
2022/03/06 02:09:53;;;;;;;;;;;0.30;80.40;;;;;;5074103;28;19913;-76
2022/03/06 02:12:22;;;;;;;;;;;0.40;80.60;;;;;;5073913;28;19950;-77
2022/03/06 02:14:48;;;;;;;;;;;0.40;80.30;;;;;;5072240;28;19916;-76
2022/03/06 02:17:13;;;;;;;;;;;0.40;80.00;;;;;;5072219;28;19958;-76
2022/03/06 02:19:51;;;;;;;;;;;0.40;80.20;;;;;;5072677;28;19908;-76
2022/03/06 02:22:17;;;;;;;;;;;0.40;79.50;;;;;;5073515;28;19909;-76
2022/03/06 02:24:43;;;;;;;;;;;0.00;80.00;;;;;;5072432;28;19913;-76
2022/03/06 02:27:08;;;;;;;;;;;-0.20;81.10;;;;;;5073445;28;19966;-76
2022/03/06 02:29:37;;;;;;;;;;;-0.40;81.40;;;;;;5072351;28;19909;-77
2022/03/06 02:32:03;;;;;;;;;;;-0.40;82.30;;;;;;5073339;28;19916;-76
2022/03/06 02:34:29;;;;;;;;;;;-0.40;82.70;;;;;;5072010;28;19917;-77
2022/03/06 02:36:54;;;;;;;;;;;-0.40;82.50;;;;;;5072024;28;19908;-76
2022/03/06 02:39:26;;;;;;;;;;;-0.50;82.90;;;;;;5072025;28;19913;-76
2022/03/06 02:41:52;;;;;;;;;;;-0.40;83.50;;;;;;5072014;28;19935;-76
2022/03/06 02:44:17;;;;;;;;;;;-0.40;83.90;;;;;;5073079;28;19913;-76
2022/03/06 02:46:46;;;;;;;;;;;-0.50;83.50;;;;;;5073187;28;20256;-76
2022/03/06 02:49:13;;;;;;;;;;;-0.60;83.50;;;;;;5073305;28;20329;-76
2022/03/06 02:51:40;;;;;;;;;;;-0.50;84.00;;;;;;5054871;28;19952;-77
2022/03/06 02:54:06;;;;;;;;;;;-0.40;83.80;;;;;;5073060;28;19909;-77
2022/03/06 02:56:31;;;;;;;;;;;-0.20;82.90;;;;;;5072939;28;20371;-76
2022/03/06 02:58:58;;;;;;;;;;;-0.20;82.50;;;;;;5071926;28;19919;-76
2022/03/06 03:01:25;;;;;;;;;;;-0.20;82.60;;;;;;5074474;28;19908;-76
2022/03/06 03:03:50;;;;;;;;;;;-0.30;82.80;;;;;;5076799;28;19995;-76
2022/03/06 03:06:16;;;;;;;;;;;-0.30;82.70;;;;;;5077197;28;20427;-76
2022/03/06 03:08:41;;;;;;;;;;;-0.30;82.50;;;;;;5076938;28;19916;-76
2022/03/06 03:11:07;;;;;;;;;;;-0.20;83.30;;;;;;5076944;28;19908;-76
2022/03/06 03:13:33;;;;;;;;;;;-0.10;83.40;;;;;;5076615;28;20279;-76
2022/03/06 03:15:59;;;;;;;;;;;-0.20;83.00;;;;;;5077080;28;20007;-76
2022/03/06 03:18:25;;;;;;;;;;;-0.10;82.60;;;;;;5059068;28;19916;-77
2022/03/06 03:20:50;;;;;;;;;;;-0.20;82.90;;;;;;5076657;28;20003;-76
2022/03/06 03:23:16;;;;;;;;;;;-0.10;82.50;;;;;;5076461;28;19955;-77
2022/03/06 03:25:42;;;;;;;;;;;0.00;82.30;;;;;;5075231;28;19959;-76
2022/03/06 03:28:07;;;;;;;;;;;0.00;81.70;;;;;;5076551;28;19987;-76
2022/03/06 03:30:33;;;;;;;;;;;0.00;81.60;;;;;;5076745;28;20374;-76
2022/03/06 03:32:58;;;;;;;;;;;-0.10;82.00;;;;;;5075330;28;19970;-76
2022/03/06 03:35:24;;;;;;;;;;;-0.20;82.50;;;;;;5075994;28;19923;-77
2022/03/06 03:37:50;;;;;;;;;;;-0.30;83.30;;;;;;5075277;28;19909;-76
2022/03/06 03:40:15;;;;;;;;;;;-0.20;83.30;;;;;;5076454;28;19909;-77
2022/03/06 03:42:41;;;;;;;;;;;-0.20;83.10;;;;;;5076386;28;19913;-76
2022/03/06 03:45:07;;;;;;;;;;;-0.20;83.00;;;;;;5074720;28;20008;-77
2022/03/06 03:47:33;;;;;;;;;;;0.00;82.90;;;;;;5076400;28;19912;-76
2022/03/06 03:49:59;;;;;;;;;;;-0.10;82.10;;;;;;5075068;28;19916;-77
2022/03/06 03:52:24;;;;;;;;;;;-0.20;82.60;;;;;;5076129;28;19909;-76
2022/03/06 03:54:50;;;;;;;;;;;-0.40;80.30;;;;;;5075915;28;19909;-76
2022/03/06 03:57:16;;;;;;;;;;;-0.60;81.00;;;;;;5076311;28;19909;-77
2022/03/06 03:59:42;;;;;;;;;;;-0.80;81.80;;;;;;5074715;28;19920;-76
2022/03/06 04:02:07;;;;;;;;;;;-1.10;82.50;;;;;;5075936;28;19919;-77
2022/03/06 04:04:33;;;;;;;;;;;-1.10;83.90;;;;;;5075840;28;19912;-76
2022/03/06 04:07:00;;;;;;;;;;;-1.10;84.30;;;;;;5075787;28;19912;-77
2022/03/06 04:09:26;;;;;;;;;;;-1.20;84.10;;;;;;5075968;28;19930;-76
2022/03/06 04:11:51;;;;;;;;;;;-1.20;85.00;;;;;;5074503;28;20402;-76
2022/03/06 04:14:17;;;;;;;;;;;-1.20;85.40;;;;;;5075151;28;19908;-77
2022/03/06 04:16:43;;;;;;;;;;;-1.20;85.60;;;;;;5074460;28;19915;-77
2022/03/06 04:19:10;;;;;;;;;;;-1.20;85.00;;;;;;5074044;28;19915;-77
2022/03/06 04:21:35;;;;;;;;;;;-1.20;85.80;;;;;;5074416;28;19908;-77
2022/03/06 04:24:01;;;;;;;;;;;-1.00;85.80;;;;;;5074158;28;19912;-77
2022/03/06 04:26:27;;;;;;;;;;;-0.90;85.50;;;;;;5057531;28;19912;-77
2022/03/06 04:28:52;;;;;;;;;;;-0.90;84.90;;;;;;5075466;28;19913;-77
2022/03/06 04:31:18;;;;;;;;;;;-1.00;85.60;;;;;;5073991;28;20283;-77
2022/03/06 04:33:43;;;;;;;;;;;-0.90;86.10;;;;;;5075134;28;20299;-76
2022/03/06 04:36:10;;;;;;;;;;;-0.90;85.90;;;;;;5075408;28;19908;-76
2022/03/06 04:38:36;;;;;;;;;;;-0.80;86.40;;;;;;5074029;28;19915;-76
2022/03/06 04:41:02;;;;;;;;;;;-0.70;85.90;;;;;;5057122;28;20283;-76
2022/03/06 04:43:28;;;;;;;;;;;-0.70;85.90;;;;;;5075061;28;19909;-76
2022/03/06 04:45:53;;;;;;;;;;;-0.60;85.10;;;;;;5073821;28;19912;-76
2022/03/06 04:48:19;;;;;;;;;;;-0.50;84.30;;;;;;5075028;28;19908;-77
2022/03/06 04:50:44;;;;;;;;;;;-0.50;85.30;;;;;;5057092;28;20366;-76
2022/03/06 04:53:10;;;;;;;;;;;-0.30;86.00;;;;;;5073703;28;19915;-76
2022/03/06 04:55:36;;;;;;;;;;;-0.40;85.20;;;;;;5074779;28;19909;-77
2022/03/06 04:58:02;;;;;;;;;;;-0.30;86.10;;;;;;5074628;28;19999;-77
2022/03/06 05:00:27;;;;;;;;;;;-0.10;87.00;;;;;;5056864;28;19952;-77
2022/03/06 05:02:53;;;;;;;;;;;-0.10;86.00;;;;;;5074368;28;20372;-76
2022/03/06 05:05:19;;;;;;;;;;;0.10;85.00;;;;;;5073171;28;19913;-77
2022/03/06 05:07:45;;;;;;;;;;;0.30;84.70;;;;;;5073282;28;19916;-77
2022/03/06 05:10:10;;;;;;;;;;;0.30;83.80;;;;;;5074630;28;19919;-77
2022/03/06 05:12:37;;;;;;;;;;;0.10;84.20;;;;;;5073407;28;19908;-76
2022/03/06 05:15:04;;;;;;;;;;;0.10;85.50;;;;;;5074523;28;19928;-76
2022/03/06 05:17:29;;;;;;;;;;;0.10;86.00;;;;;;5074513;28;20287;-77
2022/03/06 05:19:55;;;;;;;;;;;0.10;86.90;;;;;;5074493;28;19915;-76
2022/03/06 05:22:21;;;;;;;;;;;0.00;86.50;;;;;;5073194;28;19919;-76
2022/03/06 05:24:46;;;;;;;;;;;0.00;87.10;;;;;;5072268;28;19935;-76
2022/03/06 05:27:12;;;;;;;;;;;-0.20;87.80;;;;;;5074260;28;19908;-76
2022/03/06 05:29:37;;;;;;;;;;;-0.40;88.70;;;;;;5074298;28;20000;-76
2022/03/06 05:32:03;;;;;;;;;;;-0.40;89.50;;;;;;5074252;28;20360;-76
2022/03/06 05:34:29;;;;;;;;;;;-0.50;89.90;;;;;;5073255;28;19924;-76
2022/03/06 05:36:55;;;;;;;;;;;-0.50;90.50;;;;;;5074409;28;19940;-76
2022/03/06 05:39:21;;;;;;;;;;;-0.30;90.90;;;;;;5074038;28;19972;-76
2022/03/06 05:41:47;;;;;;;;;;;-0.30;90.40;;;;;;5072671;28;19923;-77
2022/03/06 05:44:12;;;;;;;;;;;-0.20;90.20;;;;;;5073844;28;20342;-76
2022/03/06 05:46:38;;;;;;;;;;;-0.20;90.70;;;;;;5073641;28;19909;-76
2022/03/06 05:49:12;;;;;;;;;;;-0.20;90.60;;;;;;5072485;28;19908;-76
2022/03/06 05:51:39;;;;;;;;;;;-0.30;90.70;;;;;;5072667;28;19908;-76
2022/03/06 05:54:05;;;;;;;;;;;-0.50;91.20;;;;;;5072552;28;20373;-76
2022/03/06 05:56:32;;;;;;;;;;;-0.40;92.40;;;;;;5072709;28;19912;-77
2022/03/06 05:58:57;;;;;;;;;;;-0.30;92.70;;;;;;5073747;28;19909;-77
2022/03/06 06:01:23;;;;;;;;;;;0.00;92.00;;;;;;5073693;28;19913;-76
2022/03/06 06:03:49;;;;;;;;;;;-0.20;90.80;;;;;;5073661;28;19916;-76
2022/03/06 06:06:15;;;;;;;;;;;-0.30;91.70;;;;;;5072470;28;19908;-77
2022/03/06 06:08:41;;;;;;;;;;;-0.10;92.70;;;;;;5072458;28;19919;-76
2022/03/06 06:11:07;;;;;;;;;;;-0.20;92.00;;;;;;5055600;28;19909;-76
2022/03/06 06:13:33;;;;;;;;;;;-0.20;92.80;;;;;;5072329;28;19912;-76
2022/03/06 06:15:58;;;;;;;;;;;-0.40;92.60;;;;;;5073552;28;19912;-76
2022/03/06 06:18:26;;;;;;;;;;;-0.40;93.70;;;;;;5073844;28;19917;-77
2022/03/06 06:20:55;;;;;;;;;;;-0.30;93.80;;;;;;5073596;28;19918;-76
2022/03/06 06:23:20;;;;;;;;;;;-0.30;93.10;;;;;;5072318;28;20144;-77
2022/03/06 06:25:46;;;;;;;;;;;-0.30;93.40;;;;;;5072070;28;20016;-76
2022/03/06 06:28:12;;;;;;;;;;;-0.40;93.90;;;;;;5072551;28;19912;-76
2022/03/06 06:30:37;;;;;;;;;;;-0.40;94.60;;;;;;5055428;28;20003;-76
2022/03/06 06:33:03;;;;;;;;;;;-0.30;94.40;;;;;;5072060;28;20007;-76
2022/03/06 06:35:28;;;;;;;;;;;-0.30;94.10;;;;;;5084187;22;19928;-72
2022/03/06 06:37:54;;;;;;;;;;;-0.30;94.50;;;;;;5072381;28;19909;-72
2022/03/06 06:40:20;;;;;;;;;;;-0.30;96.10;;;;;;5071305;28;20359;-72
2022/03/06 06:42:45;;;;;;;;;;;-0.20;94.70;;;;;;5072525;28;19912;-70
2022/03/06 06:45:11;;;;;;;;;;;-0.50;95.40;;;;;;5072126;28;19994;-70
2022/03/06 06:47:37;;;;;;;;;;;-0.40;97.40;;;;;;5071131;28;19913;-70
2022/03/06 06:50:03;;;;;;;;;;;-0.20;97.50;;;;;;5072369;28;20364;-70
2022/03/06 06:52:28;;;;;;;;;;;-0.20;96.50;;;;;;5072519;28;19958;-70
2022/03/06 06:54:54;;;;;;;;;;;-0.30;96.40;;;;;;5072126;28;20291;-72
2022/03/06 06:57:19;;;;;;;;;;;-0.40;97.60;;;;;;5071074;28;19913;-71
2022/03/06 06:59:45;;;;;;;;;;;-0.50;99.70;;;;;;5072270;28;19989;-72
2022/03/06 07:02:11;;;;;;;;;;;-0.50;99.70;;;;;;5072464;28;19918;-73
2022/03/06 07:04:36;;;;;;;;;;;-0.30;99.90;;;;;;5072109;28;19973;-71
2022/03/06 07:07:02;;;;;;;;;;;-0.20;99.90;;;;;;5065990;28;20375;-70
2022/03/06 07:09:28;;;;;;;;;;;-0.10;99.20;;;;;;5055394;28;19916;-70
2022/03/06 07:11:53;;;;;;;;;;;-0.30;99.90;;;;;;5072198;28;19909;-70
2022/03/06 07:14:19;;;;;;;;;;;-0.40;99.90;;;;;;5071770;28;19943;-70
2022/03/06 07:16:45;;;;;;;;;;;-0.50;99.70;;;;;;5071886;28;19915;-70
2022/03/06 07:19:11;;;;;;;;;;;-0.50;99.90;;;;;;5072129;28;20368;-70
2022/03/06 07:21:37;;;;;;;;;;;-0.60;99.90;;;;;;5072069;28;19909;-70
2022/03/06 07:24:06;;;;;;;;;;;-0.60;99.90;;;;;;5053558;28;19909;-70
2022/03/06 07:26:31;;;;;;;;;;;-0.50;99.90;;;;;;5050619;28;20003;-70
2022/03/06 07:28:57;;;;;;;;;;;-0.60;99.90;;;;;;5051635;28;20336;-70
2022/03/06 07:31:23;;;;;;;;;;;-0.50;99.90;;;;;;5051767;28;19916;-70
2022/03/06 07:33:48;;;;;;;;;;;-0.40;99.90;;;;;;5051781;28;20015;-70
2022/03/06 07:36:14;;;;;;;;;;;-0.40;99.90;;;;;;5052156;28;19917;-72
2022/03/06 07:38:39;;;;;;;;;;;-0.50;99.90;;;;;;5065250;28;20436;-70
2022/03/06 07:41:05;;;;;;;;;;;-0.30;99.90;;;;;;5068130;28;19915;-70
2022/03/06 07:43:31;;;;;;;;;;;-0.10;99.90;;;;;;5070435;28;19908;-70
2022/03/06 07:45:57;;;;;;;;;;;0.00;99.90;;;;;;5042237;28;19913;-70
2022/03/06 07:48:23;;;;;;;;;;;-0.20;99.90;;;;;;5052971;28;19931;-70
2022/03/06 07:50:48;;;;;;;;;;;-0.20;99.90;;;;;;5055181;28;19913;-70
2022/03/06 07:53:14;;;;;;;;;;;-0.10;99.90;;;;;;5056202;28;20003;-70
2022/03/06 07:55:40;;;;;;;;;;;-0.10;99.90;;;;;;5073941;28;19916;-70
2022/03/06 07:58:06;;;;;;;;;;;-0.10;99.90;;;;;;5075040;28;20397;-71
2022/03/06 08:00:31;;;;;;;;;;;-0.20;99.90;;;;;;5073983;28;19908;-70
2022/03/06 08:02:57;;;;;;;;;;;-0.10;99.90;;;;;;5074281;28;19913;-70
2022/03/06 08:05:23;;;;;;;;;;;0.00;99.90;;;;;;5074802;28;20006;-70
2022/03/06 08:07:48;;;;;;;;;;;0.00;99.90;;;;;;5073705;28;19912;-70
2022/03/06 08:10:14;;;;;;;;;;;0.00;99.90;;;;;;5074901;28;19908;-70
2022/03/06 08:12:41;;;;;;;;;;;-0.10;99.90;;;;;;5073367;28;19916;-71
2022/03/06 08:15:08;;;;;;;;;;;0.00;99.90;;;;;;5074794;28;19954;-71
2022/03/06 08:17:34;;;;;;;;;;;-0.10;99.90;;;;;;5074685;28;19962;-71
2022/03/06 08:20:00;;;;;;;;;;;-0.20;99.90;;;;;;5074620;28;19991;-71
2022/03/06 08:22:25;;;;;;;;;;;-0.20;99.90;;;;;;5073388;28;19978;-71
2022/03/06 08:24:51;;;;;;;;;;;-0.20;99.90;;;;;;5074393;28;19912;-71
2022/03/06 08:27:17;;;;;;;;;;;-0.10;99.90;;;;;;5074443;28;19915;-71
2022/03/06 08:29:43;;;;;;;;;;;0.00;99.90;;;;;;5061519;28;19996;-71
2022/03/06 08:32:08;;;;;;;;;;;0.10;99.90;;;;;;5056702;28;19920;-71
2022/03/06 08:34:34;;;;;;;;;;;0.40;99.90;;;;;;5074319;28;19948;-71
2022/03/06 08:36:59;;;;;;;;;;;0.30;99.90;;;;;;5067432;28;20323;-71
2022/03/06 08:39:25;;;;;;;;;;;0.20;99.90;;;;;;5053080;28;19916;-71
2022/03/06 08:41:51;;;;;;;;;;;0.20;99.90;;;;;;5054183;28;20383;-71
2022/03/06 08:44:17;;;;;;;;;;;0.00;99.90;;;;;;5054273;28;19913;-71
2022/03/06 08:46:42;;;;;;;;;;;0.20;99.90;;;;;;5056899;28;19916;-72
2022/03/06 08:49:08;;;;;;;;;;;0.30;99.90;;;;;;5054277;28;19912;-71
2022/03/06 08:51:35;;;;;;;;;;;0.50;99.90;;;;;;5053844;28;20047;-71
2022/03/06 08:54:01;;;;;;;;;;;0.40;99.90;;;;;;5054074;28;19915;-71
2022/03/06 08:56:27;;;;;;;;;;;0.30;99.90;;;;;;5035980;28;19913;-71
2022/03/06 08:58:52;;;;;;;;;;;0.50;99.90;;;;;;5053941;28;19996;-71
2022/03/06 09:01:18;;;;;;;;;;;0.50;99.90;;;;;;5053815;28;20384;-71
2022/03/06 09:03:44;;;;;;;;;;;0.60;99.90;;;;;;5069184;28;19912;-71
2022/03/06 09:06:09;;;;;;;;;;;0.50;99.90;;;;;;5072290;28;19935;-71
2022/03/06 09:08:35;;;;;;;;;;;0.30;99.90;;;;;;5073785;28;19962;-71
2022/03/06 09:11:01;;;;;;;;;;;0.50;99.90;;;;;;5073711;28;19913;-71
2022/03/06 09:13:26;;;;;;;;;;;0.60;99.90;;;;;;5072206;28;20419;-71
2022/03/06 09:15:52;;;;;;;;;;;0.90;99.90;;;;;;5072101;28;19912;-71
2022/03/06 09:18:17;;;;;;;;;;;1.00;99.90;;;;;;5073518;28;20412;-72
2022/03/06 09:20:43;;;;;;;;;;;1.20;98.90;;;;;;5073449;28;19908;-71
2022/03/06 09:23:09;;;;;;;;;;;1.40;98.70;;;;;;5073372;28;19909;-71
2022/03/06 09:25:35;;;;;;;;;;;1.60;97.10;;;;;;5073108;28;19920;-71
2022/03/06 09:28:01;;;;;;;;;;;1.60;95.90;;;;;;5073336;28;19978;-71
2022/03/06 09:30:26;;;;;;;;;;;1.60;95.60;;;;;;5073265;28;19909;-71
2022/03/06 09:32:52;;;;;;;;;;;1.80;96.30;;;;;;5073501;28;19973;-71
2022/03/06 09:35:18;;;;;;;;;;;2.10;94.70;;;;;;5055094;28;19924;-71
2022/03/06 09:37:43;;;;;;;;;;;2.40;94.00;;;;;;5072834;28;19919;-71
2022/03/06 09:40:09;;;;;;;;;;;2.70;92.80;;;;;;5073130;28;20279;-71
2022/03/06 09:42:35;;;;;;;;;;;2.80;91.80;;;;;;5072687;28;19908;-71
2022/03/06 09:45:05;;;;;;;;;;;3.30;91.40;;;;;;5065609;28;20011;-72
2022/03/06 09:47:31;;;;;;;;;;;3.50;91.00;;;;;;5051767;28;19909;-72
2022/03/06 09:49:57;;;;;;;;;;;3.50;87.80;;;;;;5051857;28;19916;-71
2022/03/06 09:52:22;;;;;;;;;;;3.80;85.90;;;;;;5052994;28;19909;-71
2022/03/06 09:54:48;;;;;;;;;;;4.10;83.50;;;;;;5052961;28;19913;-72
2022/03/06 09:57:17;;;;;;;;;;;4.10;82.40;;;;;;5052975;28;19994;-71
2022/03/06 09:59:43;;;;;;;;;;;4.40;80.60;;;;;;5072029;28;19909;-71
2022/03/06 10:02:10;;;;;;;;;;;4.70;80.00;;;;;;5072809;28;19935;-71
2022/03/06 10:04:36;;;;;;;;;;;4.80;77.10;;;;;;5071423;28;20277;-71
2022/03/06 10:07:03;;;;;;;;;;;4.80;77.50;;;;;;5071706;28;19915;-71
2022/03/06 10:09:29;;;;;;;;;;;5.20;76.10;;;;;;5071400;28;19913;-72
2022/03/06 10:11:55;;;;;;;;;;;5.60;74.50;;;;;;5072096;28;20260;-72
2022/03/06 10:14:41;;;;;;;;;;;6.00;72.00;;;;;;5071273;28;19916;-72
2022/03/06 10:17:07;;;;;;;;;;;6.20;71.20;;;;;;5072818;28;19908;-71
2022/03/06 10:19:51;;;;;;;;;;;6.30;70.00;;;;;;5072643;28;20389;-72
2022/03/06 10:22:17;;;;;;;;;;;6.40;70.00;;;;;;5072587;28;19916;-72
2022/03/06 10:24:50;;;;;;;;;;;7.00;67.90;;;;;;5072456;28;19916;-72
2022/03/06 10:27:16;;;;;;;;;;;7.00;66.00;;;;;;5072295;28;19915;-71
2022/03/06 10:29:43;;;;;;;;;;;6.90;65.90;;;;;;5072543;28;19908;-72
2022/03/06 10:32:08;;;;;;;;;;;5.90;67.70;;;;;;5070142;28;19919;-72
2022/03/06 10:34:38;;;;;;;;;;;6.10;68.20;;;;;;5072070;28;19909;-72
2022/03/06 10:37:04;;;;;;;;;;;6.70;66.50;;;;;;5071065;28;20367;-72
2022/03/06 10:39:41;;;;;;;;;;;6.90;65.10;;;;;;5072513;28;20253;-72
2022/03/06 10:42:08;;;;;;;;;;;7.40;63.80;;;;;;5072603;28;20371;-72
2022/03/06 10:44:46;;;;;;;;;;;7.30;64.00;;;;;;5071197;28;19935;-71
2022/03/06 10:47:12;;;;;;;;;;;7.20;62.40;;;;;;5072196;28;19954;-73
2022/03/06 10:49:38;;;;;;;;;;;7.60;62.10;;;;;;5054208;28;19908;-73
2022/03/06 10:52:17;;;;;;;;;;;7.80;59.80;;;;;;5072017;28;20310;-72
2022/03/06 10:54:56;;;;;;;;;;;8.30;58.70;;;;;;5070909;28;19908;-72
2022/03/06 10:57:22;;;;;;;;;;;8.40;58.40;;;;;;5072152;28;19908;-72
2022/03/06 10:59:49;;;;;;;;;;;9.20;56.30;;;;;;5072305;28;19912;-72
2022/03/06 11:02:15;;;;;;;;;;;9.10;55.50;;;;;;5070845;28;19931;-72
2022/03/06 11:04:42;;;;;;;;;;;9.00;55.00;;;;;;5071907;28;20019;-72
2022/03/06 11:07:07;;;;;;;;;;;8.80;55.50;;;;;;5071952;28;19909;-72
2022/03/06 11:09:33;;;;;;;;;;;9.20;54.30;;;;;;5072081;28;19916;-72
2022/03/06 11:11:59;;;;;;;;;;;9.40;54.50;;;;;;5087615;28;20433;-73
2022/03/06 11:14:25;;;;;;;;;;;9.30;53.70;;;;;;5070822;28;19908;-72
2022/03/06 11:16:51;;;;;;;;;;;9.70;53.50;;;;;;5071789;28;19909;-72
2022/03/06 11:19:16;;;;;;;;;;;9.60;52.40;;;;;;5054149;28;19958;-72
2022/03/06 11:21:43;;;;;;;;;;;9.20;52.60;;;;;;5071914;28;19979;-72
2022/03/06 11:24:09;;;;;;;;;;;9.60;52.10;;;;;;5074428;28;19935;-72
2022/03/06 11:26:46;;;;;;;;;;;9.20;51.90;;;;;;5075598;28;20356;-72
2022/03/06 11:29:18;;;;;;;;;;;9.70;52.00;;;;;;5075735;28;19909;-72
2022/03/06 11:31:48;;;;;;;;;;;9.00;51.00;;;;;;5075540;28;19913;-72
2022/03/06 11:34:28;;;;;;;;;;;8.90;51.30;;;;;;5075461;28;20364;-72
2022/03/06 11:36:54;;;;;;;;;;;9.50;51.80;;;;;;5075517;28;19917;-72
2022/03/06 11:39:29;;;;;;;;;;;10.50;48.90;;;;;;5075588;28;19915;-72
2022/03/06 11:41:58;;;;;;;;;;;10.10;48.80;;;;;;5075309;28;19916;-72
2022/03/06 11:44:43;;;;;;;;;;;10.30;49.10;;;;;;5075309;28;19955;-72
2022/03/06 11:47:12;;;;;;;;;;;10.50;48.50;;;;;;5075231;28;20403;-73
2022/03/06 11:49:38;;;;;;;;;;;10.90;48.10;;;;;;5075408;28;20374;-72
2022/03/06 11:52:24;;;;;;;;;;;11.40;46.70;;;;;;5075197;28;19954;-72
2022/03/06 11:54:50;;;;;;;;;;;11.10;46.10;;;;;;5073392;28;20308;-73
2022/03/06 11:57:34;;;;;;;;;;;11.40;45.70;;;;;;5075094;28;19908;-73
2022/03/06 12:00:18;;;;;;;;;;;9.90;46.40;;;;;;5075181;28;19913;-72
2022/03/06 12:02:51;;;;;;;;;;;9.30;49.30;;;;;;5075024;28;19915;-72
2022/03/06 12:05:17;;;;;;;;;;;9.90;50.30;;;;;;5075063;28;19917;-72
2022/03/06 12:07:45;;;;;;;;;;;10.70;47.50;;;;;;5074808;28;19931;-72
2022/03/06 12:10:12;;;;;;;;;;;10.70;45.50;;;;;;5067072;28;19939;-72
2022/03/06 12:12:37;;;;;;;;;;;10.00;45.90;;;;;;5056978;28;19909;-72
2022/03/06 12:15:14;;;;;;;;;;;9.90;45.70;;;;;;5073405;28;19914;-73
2022/03/06 12:17:39;;;;;;;;;;;9.70;46.90;;;;;;5066783;28;19924;-72
2022/03/06 12:20:08;;;;;;;;;;;10.50;46.10;;;;;;5054192;28;20291;-72
2022/03/06 12:22:35;;;;;;;;;;;10.40;45.70;;;;;;5035370;28;19909;-72
2022/03/06 12:25:03;;;;;;;;;;;11.00;45.30;;;;;;5058878;28;19912;-73
2022/03/06 12:27:29;;;;;;;;;;;11.50;44.80;;;;;;5072391;28;19915;-72
2022/03/06 12:29:59;;;;;;;;;;;11.30;44.70;;;;;;5073293;28;19995;-72
2022/03/06 12:32:25;;;;;;;;;;;11.60;44.00;;;;;;5068775;28;19909;-72
2022/03/06 12:35:07;;;;;;;;;;;12.10;44.00;;;;;;5071148;28;20035;-72
2022/03/06 12:37:52;;;;;;;;;;;12.40;42.50;;;;;;5060971;28;20284;-73
2022/03/06 12:40:19;;;;;;;;;;;12.30;42.00;;;;;;5056429;28;19909;-72
2022/03/06 12:42:46;;;;;;;;;;;12.00;42.00;;;;;;5074248;28;19908;-72
2022/03/06 12:45:13;;;;;;;;;;;11.90;41.70;;;;;;5074256;28;19913;-72
2022/03/06 12:47:40;;;;;;;;;;;11.50;42.90;;;;;;5073691;28;19920;-72
2022/03/06 12:50:07;;;;;;;;;;;11.70;42.30;;;;;;5062267;28;19915;-72
2022/03/06 12:52:32;;;;;;;;;;;11.00;42.10;;;;;;5053404;28;20283;-72
2022/03/06 12:55:03;;;;;;;;;;;10.60;43.60;;;;;;5059586;28;20057;-72
2022/03/06 12:57:30;;;;;;;;;;;10.80;43.00;;;;;;5073863;28;19912;-72
2022/03/06 12:59:56;;;;;;;;;;;10.80;43.00;;;;;;5074118;28;19909;-72
2022/03/06 13:02:22;;;;;;;;;;;10.70;43.30;;;;;;5065483;28;19915;-72
2022/03/06 13:04:49;;;;;;;;;;;10.80;42.90;;;;;;5055686;28;19916;-72
2022/03/06 13:07:15;;;;;;;;;;;11.00;43.20;;;;;;5073573;28;19919;-72
2022/03/06 13:09:41;;;;;;;;;;;11.10;42.70;;;;;;5066880;28;19943;-72
2022/03/06 13:12:06;;;;;;;;;;;10.40;43.30;;;;;;5052707;28;20276;-72
2022/03/06 13:14:36;;;;;;;;;;;10.20;44.80;;;;;;5062723;28;19947;-73
2022/03/06 13:17:04;;;;;;;;;;;10.10;44.20;;;;;;5073444;28;19952;-73
2022/03/06 13:19:43;;;;;;;;;;;10.10;44.50;;;;;;5073625;28;19916;-74
2022/03/06 13:22:10;;;;;;;;;;;10.10;44.10;;;;;;5073704;28;20350;-72
2022/03/06 13:24:39;;;;;;;;;;;8.80;45.40;;;;;;5073187;28;19932;-72
2022/03/06 13:27:05;;;;;;;;;;;7.90;47.50;;;;;;5072064;28;19908;-72
2022/03/06 13:29:31;;;;;;;;;;;7.60;48.40;;;;;;5073446;28;20433;-72
2022/03/06 13:31:56;;;;;;;;;;;7.40;49.30;;;;;;5073082;28;19913;-72
2022/03/06 13:34:22;;;;;;;;;;;7.40;49.00;;;;;;5072988;28;19908;-72
2022/03/06 13:36:48;;;;;;;;;;;7.30;48.80;;;;;;5073064;28;20419;-72
2022/03/06 13:39:15;;;;;;;;;;;7.40;49.50;;;;;;5071967;28;19916;-72
2022/03/06 13:41:54;;;;;;;;;;;7.40;48.80;;;;;;5073058;28;19999;-72
2022/03/06 13:44:20;;;;;;;;;;;7.60;48.70;;;;;;5072983;28;19955;-72
2022/03/06 13:46:45;;;;;;;;;;;7.10;49.10;;;;;;5072064;28;20011;-72
2022/03/06 13:49:12;;;;;;;;;;;7.00;49.70;;;;;;5073397;28;19908;-72
2022/03/06 13:51:38;;;;;;;;;;;7.10;49.60;;;;;;5073009;28;20041;-72
2022/03/06 13:54:06;;;;;;;;;;;6.90;50.10;;;;;;5071693;28;19909;-72
2022/03/06 13:56:37;;;;;;;;;;;7.20;50.00;;;;;;5071407;28;19940;-73
2022/03/06 13:59:03;;;;;;;;;;;7.40;49.10;;;;;;5072822;28;20428;-72
2022/03/06 14:01:29;;;;;;;;;;;7.60;49.00;;;;;;5072699;28;19994;-72
2022/03/06 14:04:01;;;;;;;;;;;7.60;49.30;;;;;;5071390;28;19963;-72
2022/03/06 14:06:40;;;;;;;;;;;7.60;49.20;;;;;;5072463;28;19919;-72
2022/03/06 14:09:25;;;;;;;;;;;7.60;49.40;;;;;;5072892;28;20379;-72
2022/03/06 14:12:03;;;;;;;;;;;7.40;49.90;;;;;;5072623;28;19908;-72
2022/03/06 14:14:35;;;;;;;;;;;7.30;49.80;;;;;;5072743;28;20379;-73
2022/03/06 14:17:02;;;;;;;;;;;7.10;50.50;;;;;;5072541;28;20447;-72
2022/03/06 14:19:28;;;;;;;;;;;6.90;50.90;;;;;;5071539;28;19915;-72
2022/03/06 14:21:53;;;;;;;;;;;6.80;50.70;;;;;;5072525;28;19908;-72